Time;durP1;ratioP1;P1;durP2;ratioP2;P2;SDS_P1;SDS_P2;PMS_P1;PMS_P2;Temp;Humidity;BMP_temperature;BMP_pressure;BME280_temperature;BME280_humidity;BME280_pressure;Samples;Min_cycle;Max_cycle;Signal;HPM_P1;HPM_P2
2023/09/23 00:00:55;;;;;;;1999.90;999.90;;;11.80;99.90;;;;;;5056329;28;20025;-75
2023/09/23 00:03:23;;;;;;;1999.90;999.90;;;11.80;99.90;;;;;;5056392;28;20042;-75
2023/09/23 00:05:49;;;;;;;1999.90;999.90;;;11.70;99.90;;;;;;5055669;28;20491;-75
2023/09/23 00:08:18;;;;;;;1999.90;999.90;;;11.80;99.90;;;;;;5056099;28;20057;-75
2023/09/23 00:10:44;;;;;;;1999.90;999.90;;;11.80;99.90;;;;;;5055890;28;20549;-75
2023/09/23 00:13:10;;;;;;;1999.90;999.90;;;11.70;99.90;;;;;;5056079;28;20037;-75
2023/09/23 00:15:40;;;;;;;1999.90;999.90;;;11.70;99.90;;;;;;5055847;28;20045;-75
2023/09/23 00:18:06;;;;;;;1999.90;999.90;;;11.70;99.90;;;;;;5055704;28;20037;-75
2023/09/23 00:20:33;;;;;;;1999.90;999.90;;;11.60;99.90;;;;;;5055346;28;20076;-75
2023/09/23 00:22:59;;;;;;;1999.90;999.90;;;11.60;99.90;;;;;;5055695;28;20033;-75
2023/09/23 00:25:25;;;;;;;1999.90;999.90;;;11.50;99.90;;;;;;5055492;28;20572;-75
2023/09/23 00:27:54;;;;;;;1999.90;999.90;;;11.50;99.90;;;;;;5055471;28;20034;-75
2023/09/23 00:30:22;;;;;;;1999.90;999.90;;;11.40;99.90;;;;;;5055633;28;20034;-75
2023/09/23 00:32:48;;;;;;;1999.90;999.90;;;11.40;99.90;;;;;;5055403;28;20428;-75
2023/09/23 00:35:14;;;;;;;1999.90;999.90;;;11.40;99.90;;;;;;5055533;28;20041;-75
2023/09/23 00:37:40;;;;;;;1999.90;999.90;;;11.30;99.90;;;;;;5055256;28;20399;-75
2023/09/23 00:40:13;;;;;;;1999.90;999.90;;;11.30;99.90;;;;;;5055515;28;20029;-75
2023/09/23 00:42:39;;;;;;;1999.90;999.90;;;11.30;99.90;;;;;;5053961;28;20030;-75
2023/09/23 00:45:06;;;;;;;1999.90;999.90;;;11.30;99.90;;;;;;5055251;28;20037;-75
2023/09/23 00:47:32;;;;;;;1999.90;999.90;;;11.20;99.90;;;;;;5054221;28;20064;-75
2023/09/23 00:49:57;;;;;;;1999.90;999.90;;;11.20;99.90;;;;;;5053910;28;20056;-74
2023/09/23 00:52:23;;;;;;;1999.90;999.90;;;11.20;99.90;;;;;;5054536;28;20100;-75
2023/09/23 00:54:50;;;;;;;1999.90;999.90;;;11.20;99.90;;;;;;5053152;28;20187;-75
2023/09/23 00:57:17;;;;;;;1999.90;999.90;;;11.20;99.90;;;;;;5054711;28;20033;-75
2023/09/23 00:59:43;;;;;;;1999.90;999.90;;;11.20;99.90;;;;;;5053723;28;20141;-75
2023/09/23 01:02:12;;;;;;;1999.90;999.90;;;11.20;99.90;;;;;;5054041;28;20134;-75
2023/09/23 01:04:38;;;;;;;1999.90;999.90;;;11.10;99.90;;;;;;5054879;28;20119;-75
2023/09/23 01:07:04;;;;;;;1999.90;999.90;;;11.10;99.90;;;;;;5054612;28;20053;-75
2023/09/23 01:09:33;;;;;;;1999.90;999.90;;;11.10;99.90;;;;;;5053622;28;20044;-75
2023/09/23 01:12:00;;;;;;;1999.90;999.90;;;11.10;99.90;;;;;;5055094;28;20030;-75
2023/09/23 01:14:25;;;;;;;1999.90;999.90;;;11.10;99.90;;;;;;5055011;28;20199;-75
2023/09/23 01:16:52;;;;;;;1999.90;999.90;;;11.10;99.90;;;;;;5054628;28;20232;-75
2023/09/23 01:19:25;;;;;;;1999.90;999.90;;;11.10;99.90;;;;;;5055078;28;20553;-75
2023/09/23 01:21:51;;;;;;;1999.90;999.90;;;11.00;99.90;;;;;;5055220;28;20454;-75
2023/09/23 01:24:17;;;;;;;1999.90;999.90;;;11.00;99.90;;;;;;5054632;28;20038;-75
2023/09/23 01:26:51;;;;;;;1999.90;999.90;;;11.00;99.90;;;;;;5054637;28;20496;-75
2023/09/23 01:29:23;;;;;;;1999.90;999.90;;;11.00;99.90;;;;;;5054961;28;20092;-75
2023/09/23 01:32:12;;;;;;;1999.90;999.90;;;10.90;99.90;;;;;;5054904;28;20519;-75
2023/09/23 01:34:38;;;;;;;1999.90;999.90;;;11.00;99.90;;;;;;5054686;28;20072;-75
2023/09/23 01:37:04;;;;;;;1999.90;999.90;;;10.90;99.90;;;;;;5054560;28;20132;-75
2023/09/23 01:39:32;;;;;;;1999.90;999.90;;;10.90;99.90;;;;;;5054060;28;20088;-75
2023/09/23 01:41:57;;;;;;;1999.90;999.90;;;10.80;99.90;;;;;;5054491;28;20029;-75
2023/09/23 01:44:23;;;;;;;1999.90;999.90;;;10.80;99.90;;;;;;5054416;28;20046;-75
2023/09/23 01:46:48;;;;;;;1999.90;999.90;;;10.70;99.90;;;;;;5054324;28;20037;-75
2023/09/23 01:49:16;;;;;;;1999.90;999.90;;;10.80;99.90;;;;;;5054332;28;20499;-75
2023/09/23 01:51:43;;;;;;;1999.90;999.90;;;10.80;99.90;;;;;;5054531;28;20026;-75
2023/09/23 01:54:09;;;;;;;1999.90;999.90;;;10.80;99.90;;;;;;5068563;22;20103;-76
2023/09/23 01:56:34;;;;;;;1999.90;999.90;;;10.80;99.90;;;;;;5033210;28;20504;-76
2023/09/23 01:59:00;;;;;;;1999.90;999.90;;;10.90;99.90;;;;;;5040805;28;20037;-76
2023/09/23 02:01:26;;;;;;;1999.90;999.90;;;10.90;99.90;;;;;;5041207;28;20037;-77
2023/09/23 02:03:51;;;;;;;1999.90;999.90;;;10.90;99.90;;;;;;5041024;28;20038;-77
2023/09/23 02:06:17;;;;;;;1999.90;999.90;;;11.00;99.90;;;;;;5040709;28;20034;-76
2023/09/23 02:08:43;;;;;;;1999.90;999.90;;;11.00;99.90;;;;;;5041179;28;20557;-76
2023/09/23 02:11:08;;;;;;;1999.90;999.90;;;11.00;99.90;;;;;;5041203;28;20038;-76
2023/09/23 02:13:36;;;;;;;1999.90;999.90;;;11.10;99.90;;;;;;5039651;28;20085;-76
2023/09/23 02:16:04;;;;;;;1999.90;999.90;;;11.00;99.90;;;;;;5040438;28;20034;-76
2023/09/23 02:18:30;;;;;;;1999.90;999.90;;;11.20;99.90;;;;;;5040874;28;20038;-76
2023/09/23 02:20:56;;;;;;;1999.90;999.90;;;11.20;99.90;;;;;;5040995;28;20030;-76
2023/09/23 02:23:22;;;;;;;1999.90;999.90;;;11.20;99.90;;;;;;5040906;28;20092;-77
2023/09/23 02:25:50;;;;;;;1999.90;999.90;;;11.20;99.90;;;;;;5039073;28;20522;-77
2023/09/23 02:28:15;;;;;;;1999.90;999.90;;;11.10;99.90;;;;;;5041022;28;20538;-77
2023/09/23 02:30:42;;;;;;;1999.90;999.90;;;11.10;99.90;;;;;;5039411;28;20153;-76
2023/09/23 02:33:08;;;;;;;1999.90;999.90;;;11.20;99.90;;;;;;5039282;28;20041;-76
2023/09/23 02:35:34;;;;;;;1999.90;999.90;;;11.10;99.90;;;;;;5038970;28;20453;-77
2023/09/23 02:38:00;;;;;;;1999.90;999.90;;;11.10;99.90;;;;;;5040631;28;20037;-76
2023/09/23 02:40:27;;;;;;;1999.90;999.90;;;11.10;99.90;;;;;;5040793;28;20034;-76
2023/09/23 02:42:53;;;;;;;1999.90;999.90;;;11.10;99.90;;;;;;5039219;28;20499;-76
2023/09/23 02:45:20;;;;;;;1999.90;999.90;;;11.10;99.90;;;;;;5040437;28;20034;-76
2023/09/23 02:47:46;;;;;;;1999.90;999.90;;;11.10;99.90;;;;;;5040276;28;20037;-76
2023/09/23 02:50:13;;;;;;;1999.90;999.90;;;11.10;99.90;;;;;;5040609;28;20049;-76
2023/09/23 02:52:40;;;;;;;1999.90;999.90;;;11.00;99.90;;;;;;5039115;28;20869;-76
2023/09/23 02:55:12;;;;;;;1999.90;999.90;;;11.00;99.90;;;;;;5038595;28;20068;-76
2023/09/23 02:57:45;;;;;;;1999.90;999.90;;;11.00;99.90;;;;;;5040043;28;20041;-76
2023/09/23 03:00:23;;;;;;;1999.90;999.90;;;10.90;99.90;;;;;;5039005;28;20041;-76
2023/09/23 03:02:56;;;;;;;1999.90;999.90;;;10.80;99.90;;;;;;5039023;28;20044;-76
2023/09/23 03:05:26;;;;;;;1999.90;999.90;;;10.80;99.90;;;;;;5039896;28;20042;-76
2023/09/23 03:07:59;;;;;;;1999.90;999.90;;;10.70;99.90;;;;;;5039981;28;20026;-77
2023/09/23 03:10:32;;;;;;;1999.90;999.90;;;10.60;99.90;;;;;;5036552;28;20582;-76
2023/09/23 03:13:11;;;;;;;1999.90;999.90;;;10.50;99.90;;;;;;5037119;28;20033;-76
2023/09/23 03:15:49;;;;;;;1999.90;999.90;;;10.40;99.90;;;;;;5036947;28;20038;-76
2023/09/23 03:18:15;;;;;;;1999.90;999.90;;;10.40;99.90;;;;;;5037039;28;20029;-76
2023/09/23 03:20:41;;;;;;;1999.90;999.90;;;10.30;99.90;;;;;;5037042;28;20029;-77
2023/09/23 03:23:09;;;;;;;1999.90;999.90;;;10.20;99.90;;;;;;5035400;28;20041;-76
2023/09/23 03:25:45;;;;;;;1999.90;999.90;;;10.10;99.90;;;;;;5036377;28;20033;-76
2023/09/23 03:28:14;;;;;;;1999.90;999.90;;;10.10;99.90;;;;;;5036996;28;20399;-76
2023/09/23 03:30:39;;;;;;;1999.90;999.90;;;10.10;99.90;;;;;;5036810;28;20041;-76
2023/09/23 03:33:06;;;;;;;1999.90;999.90;;;10.00;99.90;;;;;;5035252;28;20030;-76
2023/09/23 03:35:35;;;;;;;1999.90;999.90;;;10.00;99.90;;;;;;5035068;28;20112;-77
2023/09/23 03:38:01;;;;;;;1999.90;999.90;;;10.00;99.90;;;;;;5034898;28;20030;-76
2023/09/23 03:40:29;;;;;;;1999.90;999.90;;;10.00;99.90;;;;;;5035111;28;20040;-76
2023/09/23 03:42:55;;;;;;;1999.90;999.90;;;10.00;99.90;;;;;;5036419;28;20018;-77
2023/09/23 03:45:21;;;;;;;1999.90;999.90;;;10.00;99.90;;;;;;5036454;28;20037;-77
2023/09/23 03:47:46;;;;;;;1999.90;999.90;;;10.00;99.90;;;;;;5036087;28;20394;-77
2023/09/23 03:50:14;;;;;;;1999.90;999.90;;;10.00;99.90;;;;;;5036561;28;20033;-76
2023/09/23 03:52:40;;;;;;;1999.90;999.90;;;9.90;99.90;;;;;;5035031;28;20105;-76
2023/09/23 03:55:08;;;;;;;1999.90;999.90;;;9.90;99.90;;;;;;5034428;28;20111;-76
2023/09/23 03:57:34;;;;;;;1999.90;999.90;;;9.80;99.90;;;;;;5036094;28;20479;-76
2023/09/23 03:59:59;;;;;;;1999.90;999.90;;;9.70;99.90;;;;;;5036325;28;20042;-77
2023/09/23 04:02:25;;;;;;;1999.90;999.90;;;9.70;99.90;;;;;;5036257;28;20029;-77
2023/09/23 04:04:53;;;;;;;1999.90;999.90;;;9.60;99.90;;;;;;5035757;28;20033;-77
2023/09/23 04:07:20;;;;;;;1999.90;999.90;;;9.60;99.90;;;;;;5035977;28;20034;-77
2023/09/23 04:09:46;;;;;;;1999.90;999.90;;;9.50;99.90;;;;;;5036330;28;20558;-76
2023/09/23 04:12:12;;;;;;;1999.90;999.90;;;9.50;99.90;;;;;;5036267;28;20117;-77
2023/09/23 04:14:37;;;;;;;1999.90;999.90;;;9.50;99.90;;;;;;5034505;28;20060;-76
2023/09/23 04:17:03;;;;;;;1999.90;999.90;;;9.40;99.90;;;;;;5034299;28;20141;-76
2023/09/23 04:19:29;;;;;;;1999.90;999.90;;;9.40;99.90;;;;;;5036125;28;20480;-76
2023/09/23 04:21:55;;;;;;;1999.90;999.90;;;9.40;99.90;;;;;;5035821;28;20030;-77
2023/09/23 04:24:21;;;;;;;1999.90;999.90;;;9.40;99.90;;;;;;5035865;28;20057;-76
2023/09/23 04:26:47;;;;;;;1999.90;999.90;;;9.40;99.90;;;;;;5034066;28;20045;-77
2023/09/23 04:29:14;;;;;;;1999.90;999.90;;;9.30;99.90;;;;;;5035960;28;20507;-76
2023/09/23 04:31:39;;;;;;;1999.90;999.90;;;9.30;99.90;;;;;;5034370;28;20515;-76
2023/09/23 04:34:05;;;;;;;1999.90;999.90;;;9.30;99.90;;;;;;5035628;28;20093;-76
2023/09/23 04:36:31;;;;;;;1999.90;999.90;;;9.20;99.90;;;;;;5035563;28;20499;-76
2023/09/23 04:38:57;;;;;;;1999.90;999.90;;;9.30;99.90;;;;;;5034282;28;20407;-76
2023/09/23 04:41:22;;;;;;;1999.90;999.90;;;9.20;99.90;;;;;;5035550;28;20034;-76
2023/09/23 04:43:48;;;;;;;1999.90;999.90;;;9.20;99.90;;;;;;5035633;28;20052;-76
2023/09/23 04:46:17;;;;;;;1999.90;999.90;;;9.20;99.90;;;;;;5035026;28;20527;-77
2023/09/23 04:48:42;;;;;;;1999.90;999.90;;;9.20;99.90;;;;;;5034057;28;20085;-76
2023/09/23 04:51:08;;;;;;;1999.90;999.90;;;9.30;99.90;;;;;;5035641;28;20033;-76
2023/09/23 04:53:34;;;;;;;1999.90;999.90;;;9.30;99.90;;;;;;5034083;28;20488;-77
2023/09/23 04:56:06;;;;;;;1999.90;999.90;;;9.20;99.90;;;;;;5034795;28;20113;-76
2023/09/23 04:58:32;;;;;;;1999.90;999.90;;;9.20;99.90;;;;;;5035557;28;20061;-76
2023/09/23 05:00:59;;;;;;;1999.90;999.90;;;9.20;99.90;;;;;;5035239;28;20050;-76
2023/09/23 05:03:24;;;;;;;1999.90;999.90;;;9.20;99.90;;;;;;5035134;28;20471;-77
2023/09/23 05:05:50;;;;;;;1999.90;999.90;;;9.20;99.90;;;;;;5033306;28;20038;-76
2023/09/23 05:08:16;;;;;;;1999.90;999.90;;;9.20;99.90;;;;;;5035369;28;20092;-76
2023/09/23 05:10:41;;;;;;;1999.90;999.90;;;9.20;99.90;;;;;;5035366;28;20034;-76
2023/09/23 05:13:09;;;;;;;1999.90;999.90;;;9.20;99.90;;;;;;5035302;28;20057;-76
2023/09/23 05:15:34;;;;;;;1999.90;999.90;;;9.20;99.90;;;;;;5034875;28;20033;-76
2023/09/23 05:18:00;;;;;;;1999.90;999.90;;;9.20;99.90;;;;;;5034940;28;20030;-76
2023/09/23 05:20:26;;;;;;;1999.90;999.90;;;9.20;99.90;;;;;;5035170;28;20101;-76
2023/09/23 05:22:55;;;;;;;1999.90;999.90;;;9.20;99.90;;;;;;5033583;28;20117;-76
2023/09/23 05:25:24;;;;;;;1999.90;999.90;;;9.20;99.90;;;;;;5034987;28;20037;-76
2023/09/23 05:27:50;;;;;;;1999.90;999.90;;;9.20;99.90;;;;;;5034525;28;20109;-76
2023/09/23 05:30:15;;;;;;;1999.90;999.90;;;9.20;99.90;;;;;;5035411;28;20117;-76
2023/09/23 05:32:42;;;;;;;1999.90;999.90;;;9.20;99.90;;;;;;5032775;28;20065;-76
2023/09/23 05:35:09;;;;;;;1999.90;999.90;;;9.30;99.90;;;;;;5034752;28;20088;-77
2023/09/23 05:37:35;;;;;;;1999.90;999.90;;;9.30;99.90;;;;;;5033104;28;20033;-76
2023/09/23 05:40:01;;;;;;;1999.90;999.90;;;9.30;99.90;;;;;;5033362;28;20037;-77
2023/09/23 05:42:26;;;;;;;1999.90;999.90;;;9.30;99.90;;;;;;5033487;28;20372;-77
2023/09/23 05:44:52;;;;;;;1999.90;999.90;;;9.40;99.90;;;;;;5034575;28;20455;-76
2023/09/23 05:47:17;;;;;;;1999.90;999.90;;;9.50;99.90;;;;;;5034611;28;20092;-76
2023/09/23 05:49:43;;;;;;;1999.90;999.90;;;9.50;99.90;;;;;;5034913;28;20030;-77
2023/09/23 05:52:10;;;;;;;1999.90;999.90;;;9.50;99.90;;;;;;5034758;28;20042;-76
2023/09/23 05:54:36;;;;;;;1999.90;999.90;;;9.60;99.90;;;;;;5034199;28;20034;-76
2023/09/23 05:57:02;;;;;;;1999.90;999.90;;;9.70;99.90;;;;;;5034497;28;20043;-76
2023/09/23 05:59:27;;;;;;;1999.90;999.90;;;9.80;99.90;;;;;;5034578;28;20100;-76
2023/09/23 06:01:53;;;;;;;1999.90;999.90;;;9.90;99.90;;;;;;5034602;28;20038;-77
2023/09/23 06:04:18;;;;;;;1999.90;999.90;;;10.00;99.90;;;;;;5032678;28;20042;-77
2023/09/23 06:06:44;;;;;;;1999.90;999.90;;;10.00;99.90;;;;;;5034310;28;20395;-76
2023/09/23 06:09:09;;;;;;;1999.90;999.90;;;10.20;99.90;;;;;;5033097;28;20065;-77
2023/09/23 06:11:35;;;;;;;1999.90;999.90;;;10.20;99.90;;;;;;5034542;28;20038;-77
2023/09/23 06:14:01;;;;;;;1999.90;999.90;;;10.40;99.90;;;;;;5032620;28;20038;-76
2023/09/23 06:16:26;;;;;;;1999.90;999.90;;;10.50;99.90;;;;;;5034195;28;20116;-77
2023/09/23 06:18:52;;;;;;;1999.90;999.90;;;10.50;99.90;;;;;;5034507;28;20038;-77
2023/09/23 06:21:17;;;;;;;1999.90;999.90;;;10.70;99.90;;;;;;5032743;28;20510;-77
2023/09/23 06:23:43;;;;;;;1999.90;999.90;;;10.80;99.90;;;;;;5034176;28;20534;-78
2023/09/23 06:26:10;;;;;;;1999.90;999.90;;;10.90;99.90;;;;;;5032578;28;20066;-77
2023/09/23 06:28:36;;;;;;;1999.90;999.90;;;11.10;99.90;;;;;;5032833;28;20593;-76
2023/09/23 06:31:02;;;;;;;1999.90;999.90;;;11.10;99.90;;;;;;5034340;28;20093;-76
2023/09/23 06:33:28;;;;;;;1999.90;999.90;;;11.30;99.90;;;;;;5034021;28;20538;-76
2023/09/23 06:35:54;;;;;;;1999.90;999.90;;;11.40;99.90;;;;;;5033684;28;20034;-76
2023/09/23 06:38:19;;;;;;;1999.90;999.90;;;11.40;99.90;;;;;;5034327;28;20045;-77
2023/09/23 06:40:45;;;;;;;1999.90;999.90;;;11.60;99.90;;;;;;5032658;28;20041;-76
2023/09/23 06:43:12;;;;;;;1999.90;999.90;;;11.50;99.90;;;;;;5050626;28;20431;-76
2023/09/23 06:45:37;;;;;;;1999.90;999.90;;;11.60;99.90;;;;;;5054757;28;20083;-76
2023/09/23 06:48:03;;;;;;;1999.90;999.90;;;11.70;99.90;;;;;;5040750;28;20038;-76
2023/09/23 06:50:29;;;;;;;1999.90;999.90;;;11.80;99.90;;;;;;5036046;28;20041;-75
2023/09/23 06:52:55;;;;;;;1999.90;999.90;;;11.90;99.90;;;;;;5037294;28;20107;-79
2023/09/23 06:55:20;;;;;;;1999.90;999.90;;;11.90;99.90;;;;;;5035300;28;20072;-75
2023/09/23 06:57:46;;;;;;;1999.90;999.90;;;12.00;99.90;;;;;;5035563;28;20037;-75
2023/09/23 07:00:12;;;;;;;1999.90;999.90;;;12.00;99.90;;;;;;5037079;28;20070;-76
2023/09/23 07:02:37;;;;;;;1999.90;999.90;;;12.00;99.90;;;;;;5035753;28;20511;-76
2023/09/23 07:05:03;;;;;;;1999.90;999.90;;;12.00;99.90;;;;;;5036674;28;20034;-76
2023/09/23 07:07:29;;;;;;;1999.90;999.90;;;12.10;99.90;;;;;;5036705;28;20034;-77
2023/09/23 07:09:54;;;;;;;1999.90;999.90;;;12.20;99.90;;;;;;5037359;28;20484;-78
2023/09/23 07:12:20;;;;;;;1999.90;999.90;;;12.30;99.90;;;;;;5037104;28;20472;-78
2023/09/23 07:14:46;;;;;;;1999.90;999.90;;;12.40;99.90;;;;;;5036671;28;20518;-78
2023/09/23 07:17:11;;;;;;;1999.90;999.90;;;12.50;99.90;;;;;;5036723;28;20026;-78
2023/09/23 07:19:37;;;;;;;1999.90;999.90;;;12.50;99.90;;;;;;5037177;28;20060;-78
2023/09/23 07:22:03;;;;;;;1999.90;999.90;;;12.60;99.90;;;;;;5037433;28;20076;-78
2023/09/23 07:24:30;;;;;;;1999.90;999.90;;;12.70;99.90;;;;;;5035601;28;20042;-78
2023/09/23 07:26:57;;;;;;;1999.90;999.90;;;12.80;99.90;;;;;;5035414;28;20030;-78
2023/09/23 07:29:23;;;;;;;1999.90;999.90;;;12.80;99.90;;;;;;5037195;28;20117;-78
2023/09/23 07:31:49;;;;;;;1999.90;999.90;;;12.90;99.90;;;;;;5035557;28;20041;-78
2023/09/23 07:34:14;;;;;;;1999.90;999.90;;;13.00;99.90;;;;;;5036914;28;20064;-78
2023/09/23 07:36:41;;;;;;;1999.90;999.90;;;13.10;99.90;;;;;;5036970;28;20053;-78
2023/09/23 07:39:07;;;;;;;1999.90;999.90;;;13.30;99.90;;;;;;5036885;28;20042;-77
2023/09/23 07:41:32;;;;;;;1999.90;999.90;;;13.40;99.90;;;;;;5036978;28;20033;-78
2023/09/23 07:43:58;;;;;;;1999.90;999.90;;;13.30;99.90;;;;;;5036318;28;20077;-76
2023/09/23 07:46:23;;;;;;;1999.90;999.90;;;13.40;99.90;;;;;;5036543;28;20070;-75
2023/09/23 07:48:49;;;;;;;1999.90;999.90;;;13.40;99.90;;;;;;5036506;28;20038;-76
2023/09/23 07:51:14;;;;;;;1999.90;999.90;;;13.50;99.90;;;;;;5034664;28;20507;-76
2023/09/23 07:53:40;;;;;;;1999.90;999.90;;;13.40;99.90;;;;;;5036457;28;20033;-75
2023/09/23 07:56:06;;;;;;;1999.90;999.90;;;13.40;99.90;;;;;;5057843;22;20053;-74
2023/09/23 07:58:31;;;;;;;1999.90;999.90;;;13.40;99.90;;;;;;5035931;28;20052;-75
2023/09/23 08:00:57;;;;;;;1999.90;999.90;;;13.60;99.90;;;;;;5036428;28;20034;-75
2023/09/23 08:03:26;;;;;;;1999.90;999.90;;;13.60;99.90;;;;;;5036200;28;20136;-74
2023/09/23 08:05:53;;;;;;;1999.90;999.90;;;13.60;99.90;;;;;;5035707;28;20029;-75
2023/09/23 08:08:19;;;;;;;1999.90;999.90;;;13.80;99.90;;;;;;5036145;28;20037;-77
2023/09/23 08:10:44;;;;;;;1999.90;999.90;;;13.80;99.90;;;;;;5036132;28;20061;-74
2023/09/23 08:13:10;;;;;;;1999.90;999.90;;;13.80;99.90;;;;;;5036209;28;20088;-75
2023/09/23 08:15:35;;;;;;;1999.90;999.90;;;13.80;99.90;;;;;;5035729;28;20077;-78
2023/09/23 08:18:01;;;;;;;1999.90;999.90;;;14.00;99.90;;;;;;5036371;28;20046;-78
2023/09/23 08:20:27;;;;;;;1999.90;999.90;;;14.00;99.90;;;;;;5039517;28;20109;-76
2023/09/23 08:22:53;;;;;;;1999.90;999.90;;;14.10;99.90;;;;;;5034751;28;20034;-76
2023/09/23 08:25:19;;;;;;;1999.90;999.90;;;14.10;99.90;;;;;;5048712;28;20042;-76
2023/09/23 08:27:45;;;;;;;1999.90;999.90;;;14.10;99.90;;;;;;5044094;28;20037;-78
2023/09/23 08:30:11;;;;;;;1999.90;999.90;;;14.10;99.90;;;;;;5049390;28;20048;-77
2023/09/23 08:32:40;;;;;;;1999.90;999.90;;;14.20;99.90;;;;;;5051509;28;20403;-77
2023/09/23 08:35:07;;;;;;;1999.90;999.90;;;14.30;99.90;;;;;;5042181;28;20514;-78
2023/09/23 08:37:33;;;;;;;1999.90;999.90;;;14.30;99.90;;;;;;5035870;28;20034;-77
2023/09/23 08:39:59;;;;;;;1999.90;999.90;;;14.20;99.90;;;;;;5046178;28;20042;-78
2023/09/23 08:42:25;;;;;;;1999.90;999.90;;;14.40;99.90;;;;;;5039016;28;20030;-77
2023/09/23 08:44:51;;;;;;;1999.90;999.90;;;14.50;99.90;;;;;;5037092;28;20041;-78
2023/09/23 08:47:20;;;;;;;1999.90;999.90;;;14.50;99.90;;;;;;5044158;28;20038;-79
2023/09/23 08:49:49;;;;;;;1999.90;999.90;;;14.60;99.90;;;;;;5049477;28;20114;-77
2023/09/23 08:52:18;;;;;;;1999.90;999.90;;;14.60;99.90;;;;;;5039391;28;20026;-80
2023/09/23 08:54:48;;;;;;;1999.90;999.90;;;14.80;99.90;;;;;;5034983;28;20120;-80
2023/09/23 08:57:15;;;;;;;1999.90;999.90;;;15.00;99.90;;;;;;5037193;28;20030;-77
2023/09/23 08:59:40;;;;;;;1999.90;999.90;;;15.10;99.90;;;;;;5035232;28;20033;-78
2023/09/23 09:02:06;;;;;;;1999.90;999.90;;;15.10;99.90;;;;;;5021017;28;20034;-78
2023/09/23 09:04:33;;;;;;;1999.90;999.90;;;15.20;99.90;;;;;;5034807;28;20045;-77
2023/09/23 09:06:58;;;;;;;1999.90;999.90;;;15.20;99.90;;;;;;5034545;28;20778;-72
2023/09/23 09:09:25;;;;;;;1999.90;999.90;;;15.10;99.90;;;;;;5035555;28;20030;-74
2023/09/23 09:11:53;;;;;;;1999.90;999.90;;;15.10;99.90;;;;;;5047750;28;20030;-77
2023/09/23 09:14:19;;;;;;;1999.90;999.90;;;15.30;99.90;;;;;;5050330;28;20029;-79
2023/09/23 09:16:45;;;;;;;1999.90;999.90;;;15.50;99.90;;;;;;5040072;28;20034;-76
2023/09/23 09:19:11;;;;;;;1999.90;999.90;;;15.80;99.90;;;;;;5033872;28;20029;-75
2023/09/23 09:21:37;;;;;;;1999.90;999.90;;;16.00;99.90;;;;;;5034106;28;20037;-75
2023/09/23 09:24:04;;;;;;;1999.90;999.90;;;16.20;99.90;;;;;;5036177;28;20503;-77
2023/09/23 09:26:31;;;;;;;1999.90;999.90;;;16.50;99.90;;;;;;5034588;28;20073;-79
2023/09/23 09:28:57;;;;;;;1999.90;999.90;;;16.70;99.90;;;;;;5036828;28;20474;-83
2023/09/23 09:31:32;;;;;;;1999.90;999.90;;;16.80;99.90;;;;;;5037931;28;20069;-79
2023/09/23 09:34:05;;;;;;;1999.90;999.90;;;16.90;99.90;;;;;;5033021;28;21200;-79
2023/09/23 09:36:35;;;;;;;1999.90;999.90;;;16.80;99.90;;;;;;5036600;28;20038;-82
2023/09/23 09:39:04;;;;;;;1999.90;999.90;;;16.60;99.90;;;;;;5039064;28;20041;-81
2023/09/23 09:41:35;;;;;;;1999.90;999.90;;;16.40;99.90;;;;;;5036992;28;20026;-80
2023/09/23 09:44:02;;;;;;;1999.90;999.90;;;16.30;99.90;;;;;;5038462;28;20037;-80
2023/09/23 09:46:30;;;;;;;1999.90;999.90;;;16.10;99.90;;;;;;5035270;28;20041;-82
2023/09/23 09:48:59;;;;;;;1999.90;999.90;;;16.10;99.90;;;;;;5035950;28;20034;-74
2023/09/23 09:51:25;;;;;;;1999.90;999.90;;;15.80;99.90;;;;;;5033866;28;20041;-79
2023/09/23 09:53:51;;;;;;;1999.90;999.90;;;15.60;99.90;;;;;;5034816;28;20981;-77
2023/09/23 09:56:17;;;;;;;1999.90;999.90;;;15.80;99.90;;;;;;5035190;28;20097;-75
2023/09/23 09:58:43;;;;;;;1999.90;999.90;;;15.60;99.90;;;;;;5035307;28;20058;-78
2023/09/23 10:01:12;;;;;;;1999.90;999.90;;;15.50;99.90;;;;;;5035348;28;20104;-76
2023/09/23 10:03:45;;;;;;;1999.90;999.90;;;15.50;99.90;;;;;;5036089;28;20034;-79
2023/09/23 10:06:19;;;;;;;1999.90;999.90;;;15.50;99.90;;;;;;5035099;28;20109;-76
2023/09/23 10:08:48;;;;;;;1999.90;999.90;;;15.50;99.90;;;;;;5036275;28;20066;-78
2023/09/23 10:11:15;;;;;;;1999.90;999.90;;;15.70;99.90;;;;;;5034244;28;20054;-78
2023/09/23 10:13:42;;;;;;;1999.90;999.90;;;16.10;99.90;;;;;;5033164;28;20037;-76
2023/09/23 10:16:17;;;;;;;1999.90;999.90;;;16.30;99.90;;;;;;5031753;28;20037;-74
2023/09/23 10:18:43;;;;;;;1999.90;999.90;;;16.30;99.90;;;;;;5032703;28;20068;-74
2023/09/23 10:21:22;;;;;;;1999.90;999.90;;;16.30;99.90;;;;;;5038696;28;20030;-72
2023/09/23 10:23:51;;;;;;;1999.90;999.90;;;16.30;99.90;;;;;;5038943;28;20044;-75
2023/09/23 10:26:19;;;;;;;1999.90;999.90;;;16.40;99.90;;;;;;5038402;28;20034;-79
2023/09/23 10:28:58;;;;;;;1999.90;999.90;;;16.50;99.90;;;;;;5036895;28;20037;-80
2023/09/23 10:31:29;;;;;;;1999.90;999.90;;;16.50;99.90;;;;;;5038943;28;20125;-75
2023/09/23 10:33:55;;;;;;;1999.90;999.90;;;16.80;99.90;;;;;;5039825;28;20048;-78
2023/09/23 10:36:22;;;;;;;1999.90;999.90;;;17.10;99.90;;;;;;5037272;28;20088;-79
2023/09/23 10:38:49;;;;;;;1999.90;999.90;;;17.00;99.90;;;;;;5036869;28;20037;-73
2023/09/23 10:41:15;;;;;;;1999.90;999.90;;;16.80;99.90;;;;;;5037801;28;20030;-78
2023/09/23 10:43:40;;;;;;;1999.90;999.90;;;16.80;99.90;;;;;;5039997;28;20038;-78
2023/09/23 10:46:06;;;;;;;1999.90;999.90;;;16.90;99.90;;;;;;5037283;28;20034;-78
2023/09/23 10:48:32;;;;;;;1999.90;999.90;;;16.80;99.90;;;;;;5039845;28;20160;-79
2023/09/23 10:51:01;;;;;;;1999.90;999.90;;;16.60;99.90;;;;;;5037787;28;20520;-75
2023/09/23 10:53:28;;;;;;;1999.90;999.90;;;16.50;99.90;;;;;;5038536;28;20034;-81
2023/09/23 10:55:55;;;;;;;1999.90;999.90;;;16.50;99.90;;;;;;5039652;28;20049;-77
2023/09/23 10:58:21;;;;;;;1999.90;999.90;;;16.50;99.90;;;;;;5039805;28;20557;-78
2023/09/23 11:00:47;;;;;;;1999.90;999.90;;;16.50;99.90;;;;;;5039350;28;20062;-78
2023/09/23 11:03:21;;;;;;;1999.90;999.90;;;16.70;99.90;;;;;;5037811;28;20032;-76
2023/09/23 11:05:48;;;;;;;1999.90;999.90;;;17.30;99.90;;;;;;5036004;28;20042;-77
2023/09/23 11:08:15;;;;;;;1999.90;999.90;;;17.80;99.90;;;;;;5036981;28;20040;-77
2023/09/23 11:10:45;;;;;;;1999.90;999.90;;;17.90;99.90;;;;;;5036689;28;20034;-77
2023/09/23 11:13:13;;;;;;;1999.90;999.90;;;17.70;99.90;;;;;;5030304;28;20044;-76
2023/09/23 11:15:39;;;;;;;1999.90;999.90;;;17.80;99.90;;;;;;5035305;28;20058;-76
2023/09/23 11:18:16;;;;;;;1999.90;999.90;;;18.00;99.90;;;;;;5035587;28;20038;-78
2023/09/23 11:20:46;;;;;;;1999.90;999.90;;;18.00;99.90;;;;;;5035592;28;20034;-77
2023/09/23 11:23:12;;;;;;;1999.90;999.90;;;18.00;99.90;;;;;;5038491;28;20045;-78
2023/09/23 11:25:46;;;;;;;1999.90;999.90;;;17.60;99.90;;;;;;5038167;28;20037;-75
2023/09/23 11:28:20;;;;;;;1999.90;999.90;;;17.40;99.90;;;;;;5038875;28;20036;-78
2023/09/23 11:30:47;;;;;;;1999.90;999.90;;;17.30;99.90;;;;;;5036109;28;20034;-78
2023/09/23 11:33:13;;;;;;;1999.90;999.90;;;17.30;99.90;;;;;;5039229;28;20061;-77
2023/09/23 11:35:40;;;;;;;1999.90;999.90;;;17.30;99.90;;;;;;5038890;28;20066;-78
2023/09/23 11:38:06;;;;;;;1999.90;999.90;;;17.30;99.90;;;;;;5038361;28;20038;-76
2023/09/23 11:40:32;;;;;;;1999.90;999.90;;;17.60;99.90;;;;;;5036777;28;20030;-74
2023/09/23 11:42:58;;;;;;;1999.90;999.90;;;17.80;99.90;;;;;;5036469;28;20030;-76
2023/09/23 11:45:24;;;;;;;1999.90;999.90;;;17.80;99.90;;;;;;5033674;28;20038;-79
2023/09/23 11:47:50;;;;;;;1999.90;999.90;;;17.60;99.90;;;;;;5036846;28;20565;-76
2023/09/23 11:50:16;;;;;;;1999.90;999.90;;;17.60;99.90;;;;;;5034502;28;20058;-74
2023/09/23 11:52:41;;;;;;;1999.90;999.90;;;17.30;99.90;;;;;;5035944;28;20030;-79
2023/09/23 11:55:10;;;;;;;1999.90;999.90;;;17.50;99.90;;;;;;5035731;28;20512;-78
2023/09/23 11:57:36;;;;;;;1999.90;999.90;;;17.50;99.90;;;;;;5036737;28;20032;-80
2023/09/23 12:00:09;;;;;;;1999.90;999.90;;;17.70;99.90;;;;;;5031387;28;20121;-77